Terminal Aerodrome Forecast
Issued by NWS

Home | Current Version | Previous Version | Text Only | Print | Product List | Glossary On
Versions: 1 2 3 4 5 6 7 8 9 10 11 12 13
450
FTUS43 KBIS 310539
TAFMOT
TAF
KMOT 310539Z 3106/0106 13005KT P6SM SCT250
     FM311900 14013KT P6SM FEW250
     FM312300 17015G21KT P6SM SHRA VCTS SCT060CB OVC090
     FM010300 15009KT P6SM SHRA VCTS BKN060CB=

USA.gov is the U.S. government's official web portal to all federal, state and local government web resources and services.